Time;durP1;ratioP1;P1;durP2;ratioP2;P2;SDS_P1;SDS_P2;PMS_P1;PMS_P2;Temp;Humidity;BMP_temperature;BMP_pressure;BME280_temperature;BME280_humidity;BME280_pressure;Samples;Min_cycle;Max_cycle;Signal;HPM_P1;HPM_P2
2022/06/17 00:00:54;;;;;;;3.20;2.30;;;;;;;23.54;36.05;98074.94;5045820;28;20548;-72
2022/06/17 00:03:20;;;;;;;7.70;2.37;;;;;;;23.61;36.19;98073.03;5040630;28;20810;-72
2022/06/17 00:05:46;;;;;;;5.70;2.43;;;;;;;23.55;36.43;98081.94;5046734;28;20421;-72
2022/06/17 00:08:16;;;;;;;3.30;2.43;;;;;;;23.52;36.99;98082.34;5042462;28;20444;-72
2022/06/17 00:10:42;;;;;;;5.10;2.63;;;;;;;23.38;36.75;98093.13;5047841;28;20312;-73
2022/06/17 00:13:11;;;;;;;4.23;2.17;;;;;;;23.26;37.34;98087.59;5047667;28;20544;-72
2022/06/17 00:15:37;;;;;;;4.07;1.90;;;;;;;23.26;37.02;98082.25;5041645;28;20179;-73
2022/06/17 00:18:02;;;;;;;2.10;1.90;;;;;;;23.02;36.20;98081.09;5045254;28;20422;-73
2022/06/17 00:20:30;;;;;;;2.93;2.10;;;;;;;22.97;36.94;98081.75;5039647;28;20174;-71
2022/06/17 00:22:55;;;;;;;4.33;1.90;;;;;;;23.02;36.68;98076.56;5051169;28;20213;-73
2022/06/17 00:25:26;;;;;;;4.10;2.17;;;;;;;23.04;36.29;98087.06;5050988;28;20418;-72
2022/06/17 00:27:54;;;;;;;1.83;1.73;;;;;;;22.90;36.33;98082.81;5044904;28;20178;-73
2022/06/17 00:30:22;;;;;;;3.77;2.03;;;;;;;22.81;35.86;98083.00;5047447;28;20429;-73
2022/06/17 00:32:51;;;;;;;3.20;2.50;;;;;;;22.77;36.12;98084.47;5050596;28;20883;-73
2022/06/17 00:35:16;;;;;;;2.00;1.80;;;;;;;22.81;35.77;98087.53;5044838;28;21104;-73
2022/06/17 00:37:42;;;;;;;4.07;2.23;;;;;;;22.89;36.01;98086.50;5049862;28;20453;-72
2022/06/17 00:40:14;;;;;;;3.40;2.20;;;;;;;22.97;36.17;98088.94;5048799;28;20195;-73
2022/06/17 00:42:41;;;;;;;3.10;2.33;;;;;;;23.08;36.29;98090.94;5046959;28;20191;-73
2022/06/17 00:45:27;;;;;;;7.00;2.77;;;;;;;23.10;36.19;98088.88;5047485;28;20783;-73
2022/06/17 00:48:11;;;;;;;2.53;1.97;;;;;;;23.09;36.86;98095.25;5042778;28;20488;-73
2022/06/17 00:50:44;;;;;;;5.80;2.37;;;;;;;23.00;37.06;98102.69;5047044;28;20437;-74
2022/06/17 00:53:16;;;;;;;6.50;2.40;;;;;;;22.98;36.69;98102.09;5050932;28;20532;-73
2022/06/17 00:55:53;;;;;;;2.60;2.30;;;;;;;22.92;37.12;98100.25;5044849;28;20426;-73
2022/06/17 00:58:25;;;;;;;3.10;2.23;;;;;;;22.89;37.08;98095.31;5040797;28;20480;-72
2022/06/17 01:00:56;;;;;;;2.53;2.33;;;;;;;22.89;37.70;98089.97;5047272;28;20468;-72
2022/06/17 01:03:41;;;;;;;6.77;2.20;;;;;;;22.90;37.48;98096.16;5049561;28;20445;-73
2022/06/17 01:06:14;;;;;;;1.90;1.80;;;;;;;22.80;38.01;98100.09;5049934;28;20441;-73
2022/06/17 01:11:52;;;;;;;3.63;2.13;;;;;;;22.75;38.48;98093.72;5047802;28;20461;-72
2022/06/17 01:14:18;;;;;;;3.60;2.00;;;;;;;22.72;38.14;98094.97;5039513;28;20441;-72
2022/06/17 01:16:44;;;;;;;3.07;2.30;;;;;;;22.68;38.43;98099.09;5043854;28;20505;-72
2022/06/17 01:19:42;;;;;;;4.90;2.27;;;;;;;22.55;39.09;98103.44;5049047;28;20867;-72
2022/06/17 01:22:13;;;;;;;4.40;1.80;;;;;;;22.49;39.53;98100.78;5047594;28;20881;-73
2022/06/17 01:24:39;;;;;;;3.50;2.20;;;;;;;22.43;39.52;98091.72;5050158;28;20436;-73
2022/06/17 01:27:05;;;;;;;2.63;2.43;;;;;;;22.44;39.22;98081.88;5049798;28;20429;-73
2022/06/17 01:29:33;;;;;;;2.80;2.20;;;;;;;22.46;39.02;98074.47;5050384;28;20187;-72
2022/06/17 01:31:59;;;;;;;5.43;2.10;;;;;;;22.48;38.92;98073.22;5050305;28;21035;-72
2022/06/17 01:34:24;;;;;;;3.20;2.00;;;;;;;22.38;39.39;98083.50;5049796;28;20521;-73
2022/06/17 01:36:50;;;;;;;2.67;2.20;;;;;;;22.17;39.81;98072.03;5052993;28;20436;-72
2022/06/17 01:39:17;;;;;;;2.40;2.20;;;;;;;21.98;39.79;98072.81;5032249;28;20607;-72
2022/06/17 01:41:44;;;;;;;3.00;2.43;;;;;;;21.89;40.04;98072.19;5053486;28;20428;-72
2022/06/17 01:44:17;;;;;;;3.40;2.30;;;;;;;21.95;39.82;98082.06;5050538;28;20472;-72
2022/06/17 01:46:44;;;;;;;3.83;2.50;;;;;;;21.93;39.22;98081.44;5051379;28;20512;-73
2022/06/17 01:49:16;;;;;;;3.80;2.03;;;;;;;21.82;39.39;98071.38;5046991;28;20785;-73
2022/06/17 01:51:45;;;;;;;2.37;2.17;;;;;;;21.82;39.84;98082.88;5052479;28;20556;-74
2022/06/17 01:54:16;;;;;;;5.87;2.60;;;;;;;21.82;40.45;98085.53;5052106;28;20869;-73
2022/06/17 01:56:44;;;;;;;2.40;2.17;;;;;;;21.80;40.32;98084.91;5053623;28;20508;-73
2022/06/17 01:59:22;;;;;;;2.70;2.50;;;;;;;21.82;40.33;98090.06;5049899;28;20425;-73
2022/06/17 02:01:49;;;;;;;2.23;2.10;;;;;;;21.88;40.71;98090.06;5053732;28;20803;-73
2022/06/17 02:04:27;;;;;;;2.30;2.10;;;;;;;21.90;40.25;98090.69;5051990;28;20521;-73
2022/06/17 02:07:11;;;;;;;2.83;2.40;;;;;;;21.95;40.45;98100.75;5052213;28;20932;-73
2022/06/17 02:09:37;;;;;;;3.30;2.60;;;;;;;21.84;40.96;98099.50;5053505;28;20426;-74
2022/06/17 02:12:02;;;;;;;3.97;2.43;;;;;;;21.83;41.07;98100.50;5055665;28;20504;-73
2022/06/17 02:14:29;;;;;;;2.30;2.10;;;;;;;21.85;40.70;98095.81;5048810;28;20197;-72
2022/06/17 02:16:56;;;;;;;2.43;2.23;;;;;;;21.82;40.57;98096.19;5051830;28;20237;-73
2022/06/17 02:19:23;;;;;;;3.40;2.30;;;;;;;21.81;40.67;98096.41;5051714;28;20429;-73
2022/06/17 02:21:52;;;;;;;2.70;2.50;;;;;;;21.72;40.72;98090.44;5052292;28;20460;-73
2022/06/17 02:24:18;;;;;;;3.60;2.17;;;;;;;21.67;40.92;98085.72;5051666;28;20489;-72
2022/06/17 02:26:44;;;;;;;2.90;2.53;;;;;;;21.62;41.38;98086.34;5051698;28;20425;-72
2022/06/17 02:29:11;;;;;;;4.73;2.30;;;;;;;21.58;41.52;98079.72;5046176;28;20513;-73
2022/06/17 02:31:39;;;;;;;2.63;2.43;;;;;;;21.54;41.49;98078.50;5057640;28;20684;-72
2022/06/17 02:34:05;;;;;;;3.70;2.50;;;;;;;21.47;41.40;98072.31;5051213;28;20457;-72
2022/06/17 02:36:35;;;;;;;3.73;2.43;;;;;;;21.49;41.81;98075.59;5055563;28;20937;-72
2022/06/17 02:39:00;;;;;;;2.73;2.33;;;;;;;21.53;41.73;98068.84;5051960;28;20438;-73
2022/06/17 02:41:28;;;;;;;2.90;2.10;;;;;;;21.48;41.85;98063.28;5059028;28;20417;-73
2022/06/17 02:44:01;;;;;;;3.97;2.60;;;;;;;21.46;41.98;98066.16;5045902;28;20571;-72
2022/06/17 02:46:35;;;;;;;2.47;2.27;;;;;;;21.41;42.19;98071.28;5049644;28;20864;-73
2022/06/17 02:49:03;;;;;;;3.07;2.67;;;;;;;21.36;42.24;98071.03;5041942;28;20429;-72
2022/06/17 02:51:32;;;;;;;2.83;2.60;;;;;;;21.37;42.52;98071.88;5044025;28;20552;-72
2022/06/17 02:53:58;;;;;;;9.90;2.63;;;;;;;21.30;42.25;98078.00;5050809;28;20450;-72
2022/06/17 02:56:29;;;;;;;3.50;2.50;;;;;;;21.21;42.56;98075.72;5049286;28;20464;-73
2022/06/17 02:59:05;;;;;;;2.87;2.60;;;;;;;21.10;41.82;98064.63;5048606;28;20430;-73
2022/06/17 03:01:52;;;;;;;4.83;2.60;;;;;;;20.77;43.04;98062.63;5043697;28;20418;-72
2022/06/17 03:04:20;;;;;;;3.27;2.60;;;;;;;20.75;43.50;98066.50;5045117;28;20442;-72
2022/06/17 03:06:47;;;;;;;2.80;2.60;;;;;;;20.83;43.18;98069.00;5064365;28;20639;-72
2022/06/17 03:09:32;;;;;;;3.23;2.40;;;;;;;20.83;43.37;98069.84;5064487;28;20462;-72
2022/06/17 03:12:00;;;;;;;4.60;2.73;;;;;;;20.92;43.13;98075.78;5060525;28;20468;-72
2022/06/17 03:14:28;;;;;;;2.40;2.20;;;;;;;20.92;43.12;98077.66;5060697;28;20412;-72
2022/06/17 03:16:55;;;;;;;5.73;2.70;;;;;;;20.88;43.56;98082.56;5058354;28;20505;-72
2022/06/17 03:19:23;;;;;;;6.00;3.10;;;;;;;20.76;43.97;98090.28;5061019;28;20417;-73
2022/06/17 03:21:48;;;;;;;4.87;2.60;;;;;;;20.79;44.03;98092.56;5050358;28;20421;-73
2022/06/17 03:24:42;;;;;;;2.83;2.53;;;;;;;20.73;44.17;98098.63;5056799;28;20950;-73
2022/06/17 03:27:32;;;;;;;3.50;2.63;;;;;;;20.71;44.50;98096.16;5060982;28;20197;-71
2022/06/17 03:29:59;;;;;;;2.80;2.60;;;;;;;20.74;43.68;98100.25;5056181;28;20524;-72
2022/06/17 03:32:28;;;;;;;5.83;3.17;;;;;;;20.72;44.41;98108.47;5060396;28;20461;-72
2022/06/17 03:34:55;;;;;;;3.97;2.70;;;;;;;20.70;43.96;98102.50;5060605;28;20449;-72
2022/06/17 03:38:05;;;;;;;4.27;2.60;;;;;;;20.68;44.06;98101.06;5062776;28;20433;-72
2022/06/17 03:40:36;;;;;;;2.63;2.43;;;;;;;20.65;44.25;98110.28;5029174;28;20422;-72
2022/06/17 03:43:09;;;;;;;8.20;2.60;;;;;;;20.61;44.42;98111.66;5045172;28;20446;-73
2022/06/17 03:46:05;;;;;;;4.53;3.20;;;;;;;20.55;44.68;98107.09;5050049;28;20938;-72
2022/06/17 03:48:33;;;;;;;3.83;3.00;;;;;;;20.56;44.83;98111.41;5060241;28;20439;-73
2022/06/17 03:50:59;;;;;;;4.43;2.67;;;;;;;20.55;45.06;98125.75;5051408;28;20436;-72
2022/06/17 03:53:35;;;;;;;3.50;3.20;;;;;;;20.59;45.26;98126.22;5047009;28;21063;-73
2022/06/17 03:56:15;;;;;;;4.50;2.77;;;;;;;20.59;45.23;98120.88;5058617;28;20254;-73
2022/06/17 03:58:41;;;;;;;3.20;2.90;;;;;;;20.48;44.87;98133.69;5058474;28;20421;-71
2022/06/17 04:01:14;;;;;;;4.73;3.00;;;;;;;20.47;45.25;98125.91;5025099;28;20434;-73
2022/06/17 04:03:45;;;;;;;5.13;3.03;;;;;;;20.49;45.73;98121.22;5030810;28;20452;-73
2022/06/17 04:06:14;;;;;;;3.43;3.13;;;;;;;20.55;45.55;98128.41;5049592;28;20960;-73
2022/06/17 04:09:10;;;;;;;6.00;2.83;;;;;;;20.56;45.46;98135.38;5054577;28;20834;-74
2022/06/17 04:11:38;;;;;;;3.40;3.13;;;;;;;20.58;45.68;98136.03;5056889;28;20471;-72
2022/06/17 04:14:06;;;;;;;5.77;3.30;;;;;;;20.45;45.66;98143.91;5047265;28;20506;-72
2022/06/17 04:16:39;;;;;;;2.90;2.57;;;;;;;20.49;46.04;98137.19;5049280;28;20438;-73
2022/06/17 04:19:17;;;;;;;6.70;3.43;;;;;;;20.51;45.75;98143.97;5047706;28;20418;-72
2022/06/17 04:21:43;;;;;;;3.50;3.20;;;;;;;20.52;45.66;98150.94;5050874;28;20809;-73
2022/06/17 04:24:15;;;;;;;5.73;3.10;;;;;;;20.53;46.16;98146.44;5050080;28;20454;-72
2022/06/17 04:26:42;;;;;;;3.77;3.10;;;;;;;20.55;46.58;98158.53;5048987;28;20596;-71
2022/06/17 04:29:12;;;;;;;4.00;2.90;;;;;;;20.48;46.73;98154.19;5048293;28;20436;-72
2022/06/17 04:31:38;;;;;;;3.10;2.50;;;;;;;20.44;46.80;98161.72;5031442;28;20463;-72
2022/06/17 04:34:10;;;;;;;3.13;2.87;;;;;;;20.50;46.42;98162.78;5047838;28;20465;-72
2022/06/17 04:36:42;;;;;;;3.77;3.00;;;;;;;20.50;46.55;98160.94;5049257;28;20593;-71
2022/06/17 04:39:31;;;;;;;3.30;3.00;;;;;;;20.54;46.61;98166.72;5048651;28;20479;-71
2022/06/17 04:42:00;;;;;;;3.60;3.30;;;;;;;20.48;46.37;98172.81;5044117;28;20433;-71
2022/06/17 04:44:26;;;;;;;6.47;2.87;;;;;;;20.46;46.83;98169.50;5065198;28;20475;-72
2022/06/17 04:46:56;;;;;;;4.33;3.27;;;;;;;20.47;47.01;98173.81;5045815;28;20434;-72
2022/06/17 04:49:24;;;;;;;3.43;3.00;;;;;;;20.52;47.21;98176.75;5047373;28;20191;-73
2022/06/17 04:51:52;;;;;;;7.93;3.43;;;;;;;20.49;46.46;98172.59;5051254;28;20471;-72
2022/06/17 04:54:17;;;;;;;3.57;3.20;;;;;;;20.49;46.45;98174.47;5041410;28;20937;-72
2022/06/17 04:56:46;;;;;;;4.23;3.40;;;;;;;20.49;46.94;98183.25;5056316;28;20437;-73
2022/06/17 04:59:30;;;;;;;3.50;2.90;;;;;;;20.56;46.99;98191.31;5047518;28;20273;-73
2022/06/17 05:01:57;;;;;;;7.80;3.47;;;;;;;20.55;46.95;98189.66;5049680;28;20806;-73
2022/06/17 05:04:22;;;;;;;6.13;3.63;;;;;;;20.33;47.14;98181.69;5032659;28;20507;-72
2022/06/17 05:06:48;;;;;;;3.43;3.13;;;;;;;20.18;48.12;98184.44;5044891;28;20433;-73
2022/06/17 05:09:20;;;;;;;6.80;3.77;;;;;;;20.17;47.69;98184.59;5050281;28;20179;-73
2022/06/17 05:11:48;;;;;;;5.13;3.30;;;;;;;20.26;47.85;98173.66;5049404;28;20253;-72
2022/06/17 05:14:37;;;;;;;4.50;3.13;;;;;;;20.38;48.14;98176.63;5049612;28;20485;-73
2022/06/17 05:17:03;;;;;;;4.03;3.10;;;;;;;20.55;47.76;98182.50;5047712;28;20421;-74
2022/06/17 05:19:29;;;;;;;6.60;2.93;;;;;;;20.74;47.08;98184.69;5050433;28;20823;-72
2022/06/17 05:21:54;;;;;;;4.47;3.57;;;;;;;20.90;46.66;98188.91;5054561;28;20702;-72
2022/06/17 05:24:20;;;;;;;3.20;2.50;;;;;;;21.09;46.48;98180.25;5053925;28;20186;-72
2022/06/17 05:26:45;;;;;;;5.07;2.93;;;;;;;21.26;46.65;98194.06;5053651;28;20266;-73
2022/06/17 05:29:11;;;;;;;3.37;3.10;;;;;;;21.36;46.19;98192.88;5039596;28;20186;-72
2022/06/17 05:31:37;;;;;;;23.50;3.13;;;;;;;21.38;45.13;98185.50;5047483;28;20685;-73
2022/06/17 05:34:03;;;;;;;3.60;2.50;;;;;;;21.51;44.70;98190.91;5045458;28;20570;-72
2022/06/17 05:36:29;;;;;;;3.47;2.70;;;;;;;21.68;44.59;98190.56;5046385;28;20525;-73
2022/06/17 05:38:54;;;;;;;2.50;2.40;;;;;;;21.84;43.38;98192.06;5046851;28;20175;-73
2022/06/17 05:41:23;;;;;;;2.43;2.23;;;;;;;21.97;42.90;98188.59;5041979;28;20681;-73
2022/06/17 05:43:49;;;;;;;3.33;2.27;;;;;;;22.06;41.94;98190.03;5039738;28;20248;-72
2022/06/17 05:46:16;;;;;;;5.63;2.30;;;;;;;22.21;42.11;98190.69;5044474;28;20555;-72
2022/06/17 05:48:41;;;;;;;2.70;2.10;;;;;;;22.36;41.55;98203.03;5041930;28;20513;-72
2022/06/17 05:51:07;;;;;;;3.53;2.20;;;;;;;22.51;41.18;98209.03;5046307;28;20504;-71
2022/06/17 05:53:32;;;;;;;5.83;2.40;;;;;;;22.62;40.28;98212.13;5047772;28;20195;-71
2022/06/17 05:55:58;;;;;;;4.73;2.30;;;;;;;22.71;39.85;98210.88;5040000;28;20576;-73
2022/06/17 05:58:23;;;;;;;4.90;2.30;;;;;;;22.77;40.12;98215.41;5046966;28;20175;-73
2022/06/17 06:00:49;;;;;;;7.80;2.00;;;;;;;22.90;40.18;98217.22;5037465;28;20203;-74
2022/06/17 06:03:24;;;;;;;5.27;2.40;;;;;;;23.02;39.52;98212.09;5048186;28;20225;-74
2022/06/17 06:05:50;;;;;;;2.90;2.60;;;;;;;23.16;39.12;98213.72;5042871;28;20555;-72
2022/06/17 06:08:15;;;;;;;3.30;2.00;;;;;;;23.23;38.64;98212.88;5048065;28;20508;-73
2022/06/17 06:10:41;;;;;;;5.80;2.17;;;;;;;23.23;38.25;98221.75;5044274;28;20183;-72
2022/06/17 06:13:07;;;;;;;3.27;2.20;;;;;;;23.37;39.05;98227.06;5044791;28;20701;-73
2022/06/17 06:15:39;;;;;;;4.13;2.37;;;;;;;23.44;38.33;98219.81;5044642;28;20190;-72
2022/06/17 06:18:06;;;;;;;4.37;2.33;;;;;;;23.53;38.09;98215.06;5043045;28;20172;-72
2022/06/17 06:20:32;;;;;;;4.73;2.90;;;;;;;23.55;38.14;98213.00;5046294;28;20430;-71
2022/06/17 06:22:58;;;;;;;3.43;2.60;;;;;;;23.64;37.97;98214.41;5036314;28;20488;-73
2022/06/17 06:25:24;;;;;;;6.87;2.50;;;;;;;23.67;38.13;98207.78;5048557;28;20182;-73
2022/06/17 06:27:50;;;;;;;3.67;2.47;;;;;;;23.88;38.17;98204.00;5039037;28;20570;-72
2022/06/17 06:30:28;;;;;;;2.50;2.30;;;;;;;24.16;38.34;98200.16;5041801;28;20434;-73
2022/06/17 06:32:56;;;;;;;4.70;2.50;;;;;;;24.32;37.44;98199.63;5043389;28;20350;-72
2022/06/17 06:35:24;;;;;;;4.07;2.40;;;;;;;24.45;37.36;98198.72;5037758;28;20524;-72
2022/06/17 06:37:50;;;;;;;6.57;2.50;;;;;;;24.55;37.22;98203.59;5044702;28;20434;-72
2022/06/17 06:40:17;;;;;;;3.50;2.40;;;;;;;24.63;36.09;98208.66;5044044;28;20988;-71
2022/06/17 06:42:43;;;;;;;2.53;2.13;;;;;;;24.74;36.70;98209.00;5045752;28;20241;-72
2022/06/17 06:45:13;;;;;;;6.40;2.50;;;;;;;24.87;36.83;98200.03;5030926;28;20418;-72
2022/06/17 06:47:39;;;;;;;2.80;2.60;;;;;;;24.88;36.24;98201.69;5047521;28;20175;-72
2022/06/17 06:50:06;;;;;;;6.50;2.57;;;;;;;25.08;36.07;98204.13;5046230;28;20984;-72
2022/06/17 06:52:31;;;;;;;2.37;2.03;;;;;;;25.20;35.83;98210.44;5063116;28;20739;-72
2022/06/17 06:54:57;;;;;;;7.13;3.00;;;;;;;25.32;34.92;98207.81;5057928;28;20457;-72
2022/06/17 06:57:22;;;;;;;3.10;2.17;;;;;;;25.42;34.79;98207.34;5051373;28;20596;-72
2022/06/17 06:59:48;;;;;;;2.63;2.30;;;;;;;25.47;34.92;98212.81;5040951;28;20602;-72
2022/06/17 07:02:13;;;;;;;2.63;2.20;;;;;;;25.60;34.87;98215.34;5041744;28;20217;-71
2022/06/17 07:04:39;;;;;;;2.37;2.17;;;;;;;25.70;34.98;98224.75;5041146;28;20206;-71
2022/06/17 07:07:05;;;;;;;4.03;2.40;;;;;;;25.87;35.17;98220.38;5039827;28;20184;-73
2022/06/17 07:09:30;;;;;;;3.20;2.37;;;;;;;26.07;35.02;98222.00;5046167;28;20207;-74
2022/06/17 07:11:56;;;;;;;9.13;2.27;;;;;;;26.06;34.40;98218.47;5046222;28;20507;-74
2022/06/17 07:14:21;;;;;;;3.47;2.77;;;;;;;26.19;34.53;98225.56;5037663;28;20194;-73
2022/06/17 07:16:48;;;;;;;8.63;2.30;;;;;;;26.34;35.20;98218.91;5043702;28;20240;-73
2022/06/17 07:19:17;;;;;;;5.40;2.77;;;;;;;26.29;33.98;98225.00;5038178;28;20184;-73
2022/06/17 07:21:43;;;;;;;3.77;2.60;;;;;;;26.39;34.20;98221.75;5044975;28;20924;-73
2022/06/17 07:24:08;;;;;;;4.93;2.50;;;;;;;26.56;34.54;98229.16;5040274;28;20557;-71
2022/06/17 07:26:34;;;;;;;7.17;2.60;;;;;;;26.58;33.92;98224.38;5044444;28;20206;-73
2022/06/17 07:28:59;;;;;;;4.60;2.40;;;;;;;26.73;33.83;98218.53;5046299;28;20199;-72
2022/06/17 07:31:25;;;;;;;4.00;2.43;;;;;;;26.82;33.66;98223.38;5037779;28;20191;-70
2022/06/17 07:33:51;;;;;;;9.03;2.60;;;;;;;26.76;33.41;98220.75;5044390;28;20590;-70
2022/06/17 07:41:50;;;;;;;5.87;2.63;;;;;;;27.11;33.24;98220.75;5044326;28;20452;-71
2022/06/17 07:44:17;;;;;;;5.20;2.67;;;;;;;27.29;33.58;98219.00;5037127;28;20818;-73
2022/06/17 07:46:43;;;;;;;9.43;2.40;;;;;;;27.44;33.63;98218.50;5049780;28;20422;-73
2022/06/17 07:49:09;;;;;;;3.43;2.37;;;;;;;27.52;33.50;98223.56;5053257;28;20483;-71
2022/06/17 07:51:35;;;;;;;4.77;1.97;;;;;;;27.67;34.13;98216.81;5045372;28;20210;-70
2022/06/17 07:54:00;;;;;;;3.13;2.60;;;;;;;27.82;33.56;98213.63;5050491;28;20453;-70
2022/06/17 07:56:25;;;;;;;3.97;2.30;;;;;;;28.00;33.53;98221.50;5041175;28;20688;-72
2022/06/17 07:58:51;;;;;;;3.93;2.33;;;;;;;28.12;32.87;98220.66;5039667;28;20202;-71
2022/06/17 08:01:16;;;;;;;7.07;2.67;;;;;;;28.26;32.77;98226.56;5035461;28;20245;-71
2022/06/17 08:03:42;;;;;;;3.80;2.33;;;;;;;28.36;32.24;98227.53;5045040;28;20278;-71
2022/06/17 08:06:09;;;;;;;2.53;2.10;;;;;;;28.43;32.04;98230.09;5040358;28;20232;-71
2022/06/17 08:08:35;;;;;;;4.80;2.30;;;;;;;28.25;31.88;98220.34;5041966;28;20700;-71
2022/06/17 08:11:02;;;;;;;3.53;2.60;;;;;;;28.10;31.99;98223.59;5043880;28;20426;-70
2022/06/17 08:13:27;;;;;;;5.47;2.60;;;;;;;28.26;32.32;98226.56;5034923;28;20211;-71
2022/06/17 08:15:56;;;;;;;5.57;2.93;;;;;;;28.20;30.88;98221.09;5030846;28;20426;-70
2022/06/17 08:18:22;;;;;;;5.93;3.20;;;;;;;28.16;30.97;98219.13;5035605;28;21999;-70
2022/06/17 08:20:48;;;;;;;3.43;2.33;;;;;;;28.15;31.26;98220.19;5042060;28;20421;-69
2022/06/17 08:23:14;;;;;;;12.80;2.77;;;;;;;28.16;31.03;98222.66;5044929;28;20211;-72
2022/06/17 08:25:40;;;;;;;5.93;2.47;;;;;;;28.40;31.33;98218.97;5037856;28;20441;-71
2022/06/17 08:28:08;;;;;;;3.77;2.00;;;;;;;28.56;30.73;98226.28;5036810;28;20801;-71
2022/06/17 08:30:40;;;;;;;2.07;1.87;;;;;;;28.75;30.45;98223.34;5039304;28;20210;-72
2022/06/17 08:33:06;;;;;;;3.10;2.20;;;;;;;28.89;29.64;98230.03;5033714;28;20920;-70
2022/06/17 08:35:34;;;;;;;5.63;2.03;;;;;;;28.91;29.49;98222.50;5035265;28;20500;-71
2022/06/17 08:38:09;;;;;;;4.40;2.23;;;;;;;29.10;29.92;98214.16;5040348;28;20267;-71
2022/06/17 08:40:36;;;;;;;4.83;2.57;;;;;;;29.32;30.10;98216.06;5033617;28;20811;-71
2022/06/17 08:43:11;;;;;;;4.93;2.10;;;;;;;29.27;27.75;98220.31;5035583;28;20525;-73
2022/06/17 08:45:49;;;;;;;5.20;2.10;;;;;;;29.30;28.40;98218.19;5038409;28;20483;-69
2022/06/17 08:48:32;;;;;;;11.37;2.30;;;;;;;29.39;28.50;98220.25;5044546;28;20793;-71
2022/06/17 08:51:06;;;;;;;4.93;1.93;;;;;;;29.58;28.65;98223.44;5022163;28;20568;-70
2022/06/17 08:53:53;;;;;;;5.10;2.27;;;;;;;29.76;28.06;98226.06;5044813;28;20921;-70
2022/06/17 08:56:29;;;;;;;4.53;1.93;;;;;;;29.84;27.83;98223.72;5049205;28;20487;-70
2022/06/17 08:58:54;;;;;;;2.57;1.90;;;;;;;29.94;27.45;98222.19;5048973;28;20936;-71
2022/06/17 09:01:37;;;;;;;4.20;2.10;;;;;;;30.02;28.65;98213.66;5048395;28;20426;-69
2022/06/17 09:04:21;;;;;;;3.93;2.53;;;;;;;30.09;29.28;98208.06;5050251;28;20190;-70
2022/06/17 09:07:05;;;;;;;6.70;2.57;;;;;;;30.06;28.67;98214.78;5047702;28;20520;-72
2022/06/17 09:09:43;;;;;;;4.20;2.20;;;;;;;29.84;28.15;98218.34;5046490;28;20452;-72
2022/06/17 09:12:24;;;;;;;3.97;2.63;;;;;;;29.78;28.65;98224.72;5062352;28;20981;-70
2022/06/17 09:14:58;;;;;;;3.87;2.17;;;;;;;29.81;28.45;98226.09;5043443;28;20414;-72
2022/06/17 09:17:49;;;;;;;3.70;2.40;;;;;;;29.87;27.54;98225.09;5057840;28;20428;-72
2022/06/17 09:20:18;;;;;;;4.57;2.10;;;;;;;29.73;27.78;98224.69;5046256;28;20457;-72
2022/06/17 09:22:49;;;;;;;5.57;2.47;;;;;;;29.51;27.87;98222.78;5047925;28;20496;-74
2022/06/17 09:25:17;;;;;;;7.90;2.60;;;;;;;29.73;26.75;98222.00;5053677;28;20504;-74
2022/06/17 09:27:46;;;;;;;10.20;2.30;;;;;;;29.97;27.15;98217.13;5052308;28;20434;-74
2022/06/17 09:30:16;;;;;;;3.43;2.37;;;;;;;29.95;27.04;98213.06;5046768;28;20430;-74
2022/06/17 09:32:50;;;;;;;4.40;2.60;;;;;;;30.05;27.49;98223.16;5050226;28;20495;-74
2022/06/17 09:35:24;;;;;;;5.07;2.13;;;;;;;30.25;27.14;98219.81;5053031;28;20509;-73
2022/06/17 09:37:54;;;;;;;5.10;2.23;;;;;;;30.33;27.92;98222.88;5051828;28;20452;-73
2022/06/17 09:40:26;;;;;;;3.13;2.10;;;;;;;30.46;26.54;98215.41;5058539;28;20416;-73
2022/06/17 09:43:04;;;;;;;2.33;2.00;;;;;;;30.66;25.55;98214.78;5051093;28;20559;-73
2022/06/17 09:45:37;;;;;;;5.63;2.10;;;;;;;30.84;25.46;98213.56;5055034;28;20468;-73
2022/06/17 09:48:18;;;;;;;5.57;2.00;;;;;;;30.93;24.60;98211.19;5053999;28;20483;-74
2022/06/17 09:50:52;;;;;;;3.97;2.20;;;;;;;30.99;25.04;98214.72;5046046;28;20425;-73
2022/06/17 09:53:23;;;;;;;3.10;1.80;;;;;;;31.21;25.01;98217.31;5047235;28;20472;-74
2022/06/17 09:55:53;;;;;;;4.90;2.20;;;;;;;31.47;24.62;98212.03;5044993;28;20505;-72
2022/06/17 09:58:31;;;;;;;6.43;2.30;;;;;;;31.67;24.43;98220.22;5045181;28;20426;-73
2022/06/17 10:00:57;;;;;;;4.90;1.73;;;;;;;31.91;24.35;98208.13;5038314;28;20499;-71
2022/06/17 10:03:26;;;;;;;3.73;2.37;;;;;;;32.01;23.02;98214.34;5043904;28;20488;-73
2022/06/17 10:06:21;;;;;;;4.87;2.07;;;;;;;32.02;22.78;98213.28;5034839;28;20505;-72
2022/06/17 10:09:00;;;;;;;2.37;2.17;;;;;;;32.14;23.62;98206.78;5033987;28;20449;-73
2022/06/17 10:11:28;;;;;;;2.70;2.20;;;;;;;32.27;24.04;98206.28;5036498;28;20461;-73
2022/06/17 10:14:26;;;;;;;3.20;2.00;;;;;;;32.40;24.64;98199.53;5035564;28;20802;-73
2022/06/17 10:20:00;;;;;;;4.03;2.40;;;;;;;32.28;25.56;98197.06;5036145;28;20488;-73
2022/06/17 10:22:45;;;;;;;3.67;2.07;;;;;;;32.31;25.37;98193.81;5038944;28;20437;-73
2022/06/17 10:25:21;;;;;;;5.73;2.03;;;;;;;31.91;24.85;98189.16;5039139;28;20484;-73
2022/06/17 10:28:19;;;;;;;2.43;2.23;;;;;;;32.16;25.45;98199.22;5032944;28;20438;-74
2022/06/17 10:30:58;;;;;;;3.23;1.90;;;;;;;32.14;25.23;98199.50;5037145;28;20411;-72
2022/06/17 10:33:24;;;;;;;3.53;2.00;;;;;;;32.33;24.79;98190.84;5035988;28;20449;-73
2022/06/17 10:35:50;;;;;;;2.87;2.30;;;;;;;32.25;25.71;98203.06;5038263;28;20955;-73
2022/06/17 10:38:28;;;;;;;2.73;2.20;;;;;;;32.39;24.49;98191.66;5040688;28;20231;-74
2022/06/17 10:40:53;;;;;;;5.80;2.60;;;;;;;32.41;25.10;98197.63;5040141;28;20267;-72
2022/06/17 10:43:22;;;;;;;4.73;2.40;;;;;;;32.35;25.05;98196.00;5042676;28;20536;-73
2022/06/17 10:45:48;;;;;;;4.03;2.20;;;;;;;32.47;24.54;98193.84;5040381;28;20898;-72
2022/06/17 10:48:25;;;;;;;3.00;2.10;;;;;;;32.44;22.75;98189.78;5041403;28;20480;-74
2022/06/17 10:50:50;;;;;;;3.80;2.40;;;;;;;32.37;23.02;98186.50;5045604;28;20447;-73
2022/06/17 10:53:28;;;;;;;2.70;2.03;;;;;;;32.04;23.50;98190.53;5049765;28;20980;-72
2022/06/17 10:55:59;;;;;;;4.43;2.17;;;;;;;32.10;23.28;98192.16;5042433;28;20218;-72
2022/06/17 10:58:27;;;;;;;2.90;2.10;;;;;;;32.28;22.96;98188.94;5046555;28;20432;-73
2022/06/17 11:00:56;;;;;;;2.57;1.90;;;;;;;32.49;22.41;98186.25;5041277;28;20942;-73
2022/06/17 11:03:40;;;;;;;2.07;1.90;;;;;;;32.20;22.32;98189.47;5057805;28;20445;-74
2022/06/17 11:06:09;;;;;;;9.37;2.40;;;;;;;32.00;22.64;98182.94;5041850;28;20477;-73
2022/06/17 11:08:40;;;;;;;8.60;2.63;;;;;;;32.20;24.00;98189.47;5049705;28;20573;-73
2022/06/17 11:13:52;;;;;;;4.80;2.17;;;;;;;32.49;21.89;98183.53;5048068;28;20449;-72
2022/06/17 11:16:20;;;;;;;3.93;1.67;;;;;;;32.74;22.82;98187.28;5037109;28;20445;-74
2022/06/17 11:18:56;;;;;;;1.60;1.50;;;;;;;32.82;21.07;98181.34;5046503;28;20206;-72
2022/06/17 11:21:26;;;;;;;7.70;1.67;;;;;;;33.01;21.61;98180.75;5049464;28;20434;-73
2022/06/17 11:23:52;;;;;;;2.00;1.80;;;;;;;33.24;21.44;98179.31;5047268;28;20499;-73
2022/06/17 11:26:27;;;;;;;10.00;2.10;;;;;;;33.20;21.14;98184.47;5051124;28;20433;-72
2022/06/17 11:29:17;;;;;;;2.50;1.87;;;;;;;33.19;21.38;98180.13;5055598;28;20424;-71
2022/06/17 11:31:45;;;;;;;2.00;1.70;;;;;;;33.49;21.64;98181.13;5045120;28;20475;-72
2022/06/17 11:34:15;;;;;;;4.97;1.93;;;;;;;33.69;20.86;98177.50;5046660;28;20465;-73
2022/06/17 11:36:57;;;;;;;3.47;1.57;;;;;;;33.85;21.36;98164.63;5052467;28;20418;-72
2022/06/17 11:39:35;;;;;;;8.77;1.73;;;;;;;33.97;20.73;98164.28;5047396;28;20430;-71
2022/06/17 11:42:03;;;;;;;2.80;1.70;;;;;;;34.06;20.18;98167.22;5052408;28;20417;-72
2022/06/17 11:44:29;;;;;;;2.03;1.80;;;;;;;34.13;20.13;98161.47;5045820;28;20924;-72
2022/06/17 11:46:57;;;;;;;2.23;2.03;;;;;;;34.12;20.25;98160.66;5047773;28;20565;-72
2022/06/17 11:49:24;;;;;;;2.57;2.10;;;;;;;33.73;21.04;98161.44;5051667;28;20802;-72
2022/06/17 11:52:00;;;;;;;5.13;1.83;;;;;;;33.96;21.07;98151.00;5036927;28;20499;-72
2022/06/17 11:54:33;;;;;;;3.53;1.70;;;;;;;34.06;20.71;98155.53;5053155;28;20520;-72
2022/06/17 11:57:16;;;;;;;2.37;1.67;;;;;;;34.15;19.46;98160.06;5054739;28;20422;-74
2022/06/17 11:59:44;;;;;;;2.27;2.07;;;;;;;34.27;19.46;98158.91;5047685;28;20417;-71
2022/06/17 12:02:10;;;;;;;3.03;1.83;;;;;;;34.32;18.86;98147.97;5053361;28;20777;-73
2022/06/17 12:04:45;;;;;;;1.97;1.70;;;;;;;34.32;19.40;98149.91;5058706;28;20417;-73